Wise, VA

2:57 PM EDT on July 22, 2014 (GMT -0400)
RAWS WISE VA US (MWSEV2) Elev 2529 ft | 36.97 °N, 82.56 °W | Change Station

Current weather conditions updated 46 minutes ago

Scattered Clouds
Scattered Clouds
81 °F
Feels Like 82 °F
N
5
Wind Variable Wind from SW
Gusts 9.0 mph

Today is forecast to be Cooler than yesterday. Thunderstorms early tonight.

Today
High -- | Low -- °F
--% Chance of Precip.
Yesterday
High -- | Low -- °F
Precip. -- in
6:27 AM 8:45 PM
Waning Crescent, 15% visible
Pressure 30.22 in
Visibility 10.0 miles
Clouds Scattered Clouds 3400 ft
Scattered Clouds 4200 ft
Heat Index 82 °F
Dew Point 63 °F
Humidity 54%
Rainfall 0.01 in
Snow Depth Not available.
UV 9 out of 12
Pollen 3.30 out of 12
Air Quality Not available.
Flu Activity Sporadic
METAR KLNP 221835Z AUTO 17003KT 10SM SCT034 SCT042 28/17 A3022 RMK AO2

More Conditions Fewer Conditions

Pressure 30.22 in
Visibility 10.0 miles
Clouds Scattered Clouds 3400 ft
Scattered Clouds 4200 ft
Heat Index 82 °F
Dew Point 63 °F
Humidity 54%
Rainfall 0.01 in
Snow Depth Not available.
UV 9 out of 12
Pollen 3.30 out of 12
Air Quality Not available.
Flu Activity Sporadic
METAR KLNP 221835Z AUTO 17003KT 10SM SCT034 SCT042 28/17 A3022 RMK AO2

More Conditions Fewer Conditions

10-Day Weather Forecast

Almanac

Astronomy

Jul. 22, 2014 Rise Set
Actual Time 6:27 AM EDT 8:45 PM EDT
Civil Twilight 5:58 AM EDT 9:14 PM EDT
Nautical Twilight 5:21 AM EDT 9:50 PM EDT
Astronomical Twilight 4:42 AM EDT 10:30 PM EDT
Moon 2:58 AM EDT 5:22 PM EDT
Length of Visible Light 15h 16m
Length of Day
14h 17m
Tomorrow will be 1m 29s shorter.
Waning Crescent, 15% of the Moon is Illuminated
Today
Waning Crescent
Jul 26
New
Aug 3
First Quarter
Aug 10
Full
Aug 17
Last Quarter

Today's Extremes

State Highs State Lows

Community

WunderPhotos

Upload Photos

1,736,322 photos uploaded!

Nearby

Snow Depth

Station Depth Elevation
No new snow has been reported.

Earthquake Activity

City Distance Mag. Time & Date
No recent earthquake activity has been reported nearby.
Minimum magnitude displayed is 2.5.

Coastal Water Temperatures

Place Temperature
No Stations Reporting

Nearby Weather Stations

Station Location Temp. Heat Index Dew Point Humidity Wind Precip. Elev Updated Type
RAWS WISE VA, Wise, VA 81 °F 82 °F 63 °F 54% SW  at  5 mph 0.00 in / hr 2529 ft 2:11 PM EDT MADIS
RAWS PRAWS 12 KY, Jenkins, KY 80 °F 82 °F 65 °F 60% East  at  2 mph 0.00 in / hr 1974 ft 1:47 PM EDT MADIS
Ramey Flats, Clintwood, VA 86.5 °F 92 °F 70 °F 59% SE  at  0.0 mph 0.00 in / hr 1795 ft 2:42 PM EDT Normal
W4CSN, Nottingham, Gate City, VA 82.4 °F 86 °F 69 °F 64% South  at  2.0 mph 0.00 in / hr 1309 ft 2:57 PM EDT Rapid Fire

Show More Stations Show Fewer Stations